Marblemount, WA

2:51 AM PST on February 20, 2017 (GMT -0800)
Corkindale, WA USA | | Change Station
Active Advisory: Winter Weather Advisory

Elev 292 ft 48.51 °N, 121.48 °W | Updated 12 seconds ago

Mostly Cloudy
Mostly Cloudy
38.0 °F
Feels Like 38 °F
N
0.0
Wind Variable Wind from WSW

Today
High -- | Low -- °F
--% Chance of Precip.
Yesterday
High -- | Low -- °F
Precip. -- in
Pressure 29.62 in
Visibility 10.0 miles
Clouds Mostly Cloudy 3200 ft
Overcast 4200 ft
Windchill 38 °F
Dew Point 13 °F
Humidity 36%
Rainfall 0.00 in
Snow Depth Not available.
7:03 AM 5:36 PM
Waning Crescent, 35% visible
METAR KAWO 201035Z AUTO 07005KT 10SM BKN032 OVC042 07/01 A2962 RMK AO1
Pressure 29.62 in
Visibility 10.0 miles
Clouds Mostly Cloudy 3200 ft
Overcast 4200 ft
Windchill 38 °F
Dew Point 13 °F
Humidity 36%
Rainfall 0.00 in
Snow Depth Not available.
7:03 AM 5:36 PM
Waning Crescent, 35% visible
METAR KAWO 201035Z AUTO 07005KT 10SM BKN032 OVC042 07/01 A2962 RMK AO1

Get Your Daily Forecast Email!

Thanks for signing up!

Be on the lookout for a verification email in your inbox.

You'll start receiving the daily forecast at 8 AM.

×

10-Day Weather Forecast

Almanac

Astronomy

Feb. 20, 2017 Rise Set
Actual Time
Civil Twilight
Nautical Twilight
Astronomical Twilight
Moon
Length of Visible Light
Length of Day
Tomorrow will be .
, % of the Moon is Illuminated

Today's Extremes

State Highs State Lows

Community

WunderPhotos

Upload Photos

1,962,540 photos uploaded!

WunderBlog® & News

Nearby

Air Quality

  Air Quality AQ Index Pollutant
Not available.

Snow Depth

Station Depth Elevation

Earthquake Activity

City Distance Mag. Time & Date
Minimum magnitude displayed is 2.5.

Coastal Water Temperatures

Place Temperature

Stations

Nearby Weather Stations

Station Location Temp. Windchill Dew Point Humidity Wind Precip. Elev Updated Type
                   

Watches & Warnings

Winter Weather Advisory
Issued: 9:37 PM PST Feb. 19, 2017 – National Weather Service

... Winter Weather Advisory now in effect until 3 am PST Monday...

* snow accumulations... additional snow accumulations up 4 inches
through late tonight. Another system will bring accumulating
snow, mainly Monday afternoon and evening.

* Some affected locations... Mount Baker.

* Timing... heaviest snowfall will occur tonight and taper toward
morning. After a lull in snowfall Monday morning, additional
snow is likely Monday afternoon and evening.

* Main impact... travel will be affected, especially tonight.

Precautionary/preparedness actions...

A Winter Weather Advisory for snow means that periods of snow
will cause primarily travel difficulties. Be prepared for snow
covered roads and limited visibilities, and use caution while
driving.